Time;durP1;ratioP1;P1;durP2;ratioP2;P2;SDS_P1;SDS_P2;PMS_P1;PMS_P2;Temp;Humidity;BMP_temperature;BMP_pressure;BME280_temperature;BME280_humidity;BME280_pressure;Samples;Min_cycle;Max_cycle;Signal;HPM_P1;HPM_P2
2023/07/20 00:01:06;;;;;;;50.05;8.75;;;;;;;;;;10336579;28;20075;-64
2023/07/20 00:06:05;;;;;;;69.68;10.05;;;;;;;;;;10340263;28;20167;-65
2023/07/20 00:11:03;;;;;;;29.58;7.10;;;;;;;;;;10336232;28;20079;-65
2023/07/20 00:16:02;;;;;;;30.63;6.22;;;;;;;;;;10334890;28;20079;-65
2023/07/20 00:21:01;;;;;;;17.52;5.97;;;;;;;;;;10336677;28;20071;-64
2023/07/20 00:26:00;;;;;;;14.25;6.10;;;;;;;;;;10336682;28;20068;-64
2023/07/20 00:31:00;;;;;;;14.05;6.50;;;;;;;;;;10335990;28;20068;-65
2023/07/20 00:35:59;;;;;;;16.52;6.65;;;;;;;;;;10335430;28;20075;-65
2023/07/20 00:40:57;;;;;;;11.50;5.03;;;;;;;;;;10320310;28;20417;-64
2023/07/20 00:45:56;;;;;;;20.42;5.60;;;;;;;;;;10330908;28;20077;-64
2023/07/20 00:50:55;;;;;;;11.32;4.20;;;;;;;;;;10328783;28;20096;-64
2023/07/20 00:55:56;;;;;;;12.05;3.50;;;;;;;;;;10342441;28;20075;-64
2023/07/20 01:00:54;;;;;;;9.18;3.83;;;;;;;;;;10335691;28;20087;-65
2023/07/20 01:05:55;;;;;;;14.73;3.70;;;;;;;;;;10322757;28;20083;-65
2023/07/20 01:10:56;;;;;;;8.70;3.97;;;;;;;;;;10325836;28;20198;-65
2023/07/20 01:15:58;;;;;;;20.88;4.38;;;;;;;;;;10325716;28;20070;-65
2023/07/20 01:21:00;;;;;;;13.85;3.55;;;;;;;;;;10322363;28;20082;-65
2023/07/20 01:26:09;;;;;;;17.02;3.72;;;;;;;;;;10326557;28;20086;-64
2023/07/20 01:31:17;;;;;;;15.30;3.63;;;;;;;;;;10337947;28;20484;-63
2023/07/20 01:36:17;;;;;;;9.85;3.30;;;;;;;;;;10329458;28;20076;-64
2023/07/20 01:41:16;;;;;;;12.35;3.25;;;;;;;;;;10316785;28;20456;-65
2023/07/20 01:46:14;;;;;;;16.35;3.60;;;;;;;;;;10336006;28;20730;-64
2023/07/20 01:51:14;;;;;;;14.35;3.95;;;;;;;;;;10336625;28;20071;-65
2023/07/20 01:56:12;;;;;;;9.23;3.00;;;;;;;;;;10339559;28;20072;-65
2023/07/20 02:01:10;;;;;;;15.77;3.17;;;;;;;;;;10319691;28;20079;-65
2023/07/20 02:06:08;;;;;;;9.02;3.08;;;;;;;;;;10332539;28;20441;-65
2023/07/20 02:11:09;;;;;;;6.53;3.35;;;;;;;;;;10317088;28;20067;-65
2023/07/20 02:16:08;;;;;;;9.90;3.45;;;;;;;;;;10316580;28;20462;-65
2023/07/20 02:21:06;;;;;;;8.27;3.80;;;;;;;;;;10318162;28;20068;-64
2023/07/20 02:26:04;;;;;;;11.48;3.42;;;;;;;;;;10330123;28;20096;-65
2023/07/20 02:31:04;;;;;;;9.32;3.10;;;;;;;;;;10324127;28;20083;-65
2023/07/20 02:36:02;;;;;;;10.13;2.95;;;;;;;;;;10336550;28;20103;-65
2023/07/20 02:41:00;;;;;;;10.07;2.85;;;;;;;;;;10339365;28;20064;-64
2023/07/20 02:45:58;;;;;;;5.38;3.03;;;;;;;;;;10335457;28;20068;-63
2023/07/20 02:50:58;;;;;;;9.18;2.97;;;;;;;;;;10315843;28;20111;-64
2023/07/20 02:55:56;;;;;;;5.97;3.10;;;;;;;;;;10336989;28;20532;-64
2023/07/20 03:00:54;;;;;;;9.15;3.00;;;;;;;;;;10319026;28;20079;-64
2023/07/20 03:05:54;;;;;;;5.95;2.50;;;;;;;;;;10324168;28;20086;-64
2023/07/20 03:10:55;;;;;;;8.73;3.65;;;;;;;;;;10329132;28;20079;-64
2023/07/20 03:15:54;;;;;;;7.13;3.38;;;;;;;;;;10339703;28;20064;-64
2023/07/20 03:20:53;;;;;;;7.55;2.58;;;;;;;;;;10340149;28;20068;-64
2023/07/20 03:25:54;;;;;;;10.57;3.25;;;;;;;;;;10340470;28;20090;-63
2023/07/20 03:30:58;;;;;;;10.88;2.92;;;;;;;;;;10325606;28;20493;-64
2023/07/20 03:35:57;;;;;;;7.30;3.00;;;;;;;;;;10322851;28;20083;-63
2023/07/20 03:40:57;;;;;;;7.22;2.78;;;;;;;;;;10342895;28;20111;-63
2023/07/20 03:45:56;;;;;;;6.95;3.45;;;;;;;;;;10341252;28;20255;-64
2023/07/20 03:50:56;;;;;;;9.15;3.30;;;;;;;;;;10321878;28;20087;-64
2023/07/20 03:55:54;;;;;;;5.28;2.83;;;;;;;;;;10338483;28;20071;-64
2023/07/20 04:00:53;;;;;;;5.63;2.53;;;;;;;;;;10339923;28;20063;-62
2023/07/20 04:05:51;;;;;;;6.57;3.28;;;;;;;;;;10340793;28;20083;-63
2023/07/20 04:10:51;;;;;;;12.70;3.28;;;;;;;;;;10317280;28;20080;-63
2023/07/20 04:15:49;;;;;;;4.55;2.42;;;;;;;;;;10339899;28;20078;-63
2023/07/20 04:20:47;;;;;;;8.60;3.05;;;;;;;;;;10322009;28;20051;-63
2023/07/20 04:25:46;;;;;;;10.10;4.20;;;;;;;;;;10327431;28;20504;-63
2023/07/20 04:30:49;;;;;;;7.57;3.72;;;;;;;;;;10314267;28;20044;-63
2023/07/20 04:35:51;;;;;;;13.63;2.93;;;;;;;;;;10320293;28;20052;-64
2023/07/20 04:40:56;;;;;;;17.73;3.72;;;;;;;;;;10322756;28;20063;-64
2023/07/20 04:45:56;;;;;;;7.20;3.70;;;;;;;;;;10338642;28;20063;-64
2023/07/20 04:50:55;;;;;;;7.13;2.47;;;;;;;;;;10318649;28;20616;-64
2023/07/20 04:55:54;;;;;;;7.18;3.05;;;;;;;;;;10316142;28;20075;-64
2023/07/20 05:00:56;;;;;;;11.23;3.38;;;;;;;;;;10320194;28;20091;-63
2023/07/20 05:05:54;;;;;;;6.10;2.63;;;;;;;;;;10324403;28;20083;-64
2023/07/20 05:10:52;;;;;;;9.40;2.80;;;;;;;;;;10320425;28;20047;-64
2023/07/20 05:15:52;;;;;;;6.60;3.28;;;;;;;;;;10319170;28;20075;-64
2023/07/20 05:20:54;;;;;;;7.43;3.13;;;;;;;;;;10318673;28;20082;-64
2023/07/20 05:25:55;;;;;;;13.93;3.72;;;;;;;;;;10324602;28;20504;-64
2023/07/20 05:30:53;;;;;;;6.10;3.28;;;;;;;;;;10335249;28;20068;-64
2023/07/20 05:35:53;;;;;;;5.80;3.60;;;;;;;;;;10335699;28;20079;-64
2023/07/20 05:40:51;;;;;;;6.60;3.80;;;;;;;;;;10327988;28;20505;-64
2023/07/20 05:45:49;;;;;;;5.85;3.72;;;;;;;;;;10337313;28;20076;-65
2023/07/20 05:50:48;;;;;;;8.15;3.97;;;;;;;;;;10338923;28;20083;-64
2023/07/20 05:55:52;;;;;;;6.32;3.35;;;;;;;;;;10334760;28;20083;-65
2023/07/20 06:00:50;;;;;;;9.15;3.80;;;;;;;;;;10337137;28;20068;-65
2023/07/20 06:05:49;;;;;;;8.52;3.40;;;;;;;;;;10340137;28;20067;-64
2023/07/20 06:10:52;;;;;;;5.88;2.83;;;;;;;;;;10325985;28;20084;-64
2023/07/20 06:15:50;;;;;;;7.75;3.25;;;;;;;;;;10340950;28;20068;-63
2023/07/20 06:20:51;;;;;;;7.72;3.97;;;;;;;;;;10340088;28;20524;-64
2023/07/20 06:25:49;;;;;;;10.00;4.13;;;;;;;;;;10335370;28;20064;-64
2023/07/20 06:30:50;;;;;;;9.38;4.85;;;;;;;;;;10343101;28;20078;-64
2023/07/20 06:35:48;;;;;;;6.53;4.00;;;;;;;;;;10340527;28;20082;-65
2023/07/20 06:40:47;;;;;;;6.97;3.60;;;;;;;;;;10343776;28;20078;-64
2023/07/20 06:45:45;;;;;;;9.93;5.80;;;;;;;;;;10351591;28;20071;-63
2023/07/20 06:50:45;;;;;;;7.95;3.72;;;;;;;;;;10351459;28;20105;-65
2023/07/20 06:55:43;;;;;;;19.75;17.42;;;;;;;;;;10343648;28;20064;-64
2023/07/20 07:00:42;;;;;;;8.55;3.78;;;;;;;;;;10350107;28;20071;-64
2023/07/20 07:05:40;;;;;;;7.78;3.63;;;;;;;;;;10344164;28;20062;-64
2023/07/20 07:10:40;;;;;;;9.57;4.20;;;;;;;;;;10345723;28;20075;-64
2023/07/20 07:15:38;;;;;;;8.40;4.18;;;;;;;;;;10355976;28;20074;-64
2023/07/20 07:20:36;;;;;;;10.02;4.43;;;;;;;;;;10347096;28;20516;-65
2023/07/20 07:25:34;;;;;;;7.45;3.58;;;;;;;;;;10340396;28;20068;-64
2023/07/20 07:30:34;;;;;;;8.70;4.05;;;;;;;;;;10341958;28;20071;-64
2023/07/20 07:35:32;;;;;;;6.25;4.10;;;;;;;;;;10347214;28;20071;-64
2023/07/20 07:40:30;;;;;;;9.75;5.28;;;;;;;;;;10338969;28;20095;-63
2023/07/20 07:45:29;;;;;;;6.20;4.78;;;;;;;;;;10336296;28;20091;-64
2023/07/20 07:50:28;;;;;;;6.95;4.10;;;;;;;;;;10331620;28;20079;-65
2023/07/20 07:55:28;;;;;;;6.97;3.80;;;;;;;;;;10333228;28;20666;-63
2023/07/20 08:00:26;;;;;;;14.90;8.77;;;;;;;;;;10336924;28;20088;-64
2023/07/20 08:05:25;;;;;;;6.72;3.65;;;;;;;;;;10338671;28;20080;-63
2023/07/20 08:10:25;;;;;;;7.05;4.25;;;;;;;;;;10338248;28;20072;-63
2023/07/20 08:15:23;;;;;;;7.82;5.00;;;;;;;;;;10338499;28;20509;-64
2023/07/20 08:20:26;;;;;;;5.60;3.85;;;;;;;;;;10337427;28;20095;-64
2023/07/20 08:25:26;;;;;;;8.07;4.53;;;;;;;;;;10337729;28;20072;-64
2023/07/20 08:30:24;;;;;;;6.88;4.43;;;;;;;;;;10337657;28;20056;-64
2023/07/20 08:35:22;;;;;;;6.05;3.83;;;;;;;;;;10337204;28;20072;-64
2023/07/20 08:40:21;;;;;;;5.15;4.20;;;;;;;;;;10320200;28;20070;-64
2023/07/20 08:45:23;;;;;;;9.38;3.83;;;;;;;;;;10337669;28;20075;-64
2023/07/20 08:50:22;;;;;;;9.93;4.45;;;;;;;;;;10320600;28;20091;-63
2023/07/20 08:55:22;;;;;;;12.15;3.42;;;;;;;;;;10336635;28;20072;-63
2023/07/20 09:00:22;;;;;;;8.50;3.92;;;;;;;;;;10333810;28;20075;-64
2023/07/20 09:05:20;;;;;;;8.18;3.83;;;;;;;;;;10336031;28;20072;-64
2023/07/20 09:10:19;;;;;;;12.30;4.32;;;;;;;;;;10335063;28;20269;-64
2023/07/20 09:15:17;;;;;;;4.85;3.45;;;;;;;;;;10335238;28;20724;-64
2023/07/20 09:20:18;;;;;;;6.45;3.53;;;;;;;;;;10335296;28;20087;-64
2023/07/20 09:25:20;;;;;;;8.23;3.40;;;;;;;;;;10335002;28;20536;-64
2023/07/20 09:30:25;;;;;;;9.90;3.60;;;;;;;;;;10334829;28;20071;-64
2023/07/20 09:35:30;;;;;;;8.95;3.05;;;;;;;;;;10334998;28;20068;-64
2023/07/20 09:40:40;;;;;;;3.88;3.05;;;;;;;;;;10334726;28;20072;-65
2023/07/20 09:45:42;;;;;;;7.22;3.83;;;;;;;;;;10335251;28;20087;-64
2023/07/20 09:50:50;;;;;;;4.40;3.40;;;;;;;;;;10318448;28;20071;-64
2023/07/20 09:55:50;;;;;;;8.32;3.22;;;;;;;;;;10334299;28;20080;-65
2023/07/20 10:00:50;;;;;;;9.55;3.63;;;;;;;;;;10334774;28;20044;-64
2023/07/20 10:05:55;;;;;;;7.90;3.78;;;;;;;;;;10334308;28;20072;-64
2023/07/20 10:10:54;;;;;;;9.63;3.45;;;;;;;;;;10336557;28;20080;-64
2023/07/20 10:15:54;;;;;;;6.70;3.38;;;;;;;;;;10341910;28;20075;-64
2023/07/20 10:20:55;;;;;;;4.93;3.92;;;;;;;;;;10342257;28;20488;-64
2023/07/20 10:25:56;;;;;;;6.32;3.85;;;;;;;;;;10341613;28;20071;-64
2023/07/20 10:30:54;;;;;;;8.10;3.60;;;;;;;;;;10341364;28;20501;-64
2023/07/20 10:35:55;;;;;;;3.83;3.13;;;;;;;;;;10341402;28;20075;-64
2023/07/20 10:40:56;;;;;;;8.73;3.38;;;;;;;;;;10341827;28;20082;-64
2023/07/20 10:45:55;;;;;;;6.30;3.25;;;;;;;;;;10340356;28;20083;-64
2023/07/20 10:51:12;;;;;;;6.45;3.40;;;;;;;;;;10340514;28;20080;-64
2023/07/20 10:56:13;;;;;;;6.88;4.00;;;;;;;;;;10341363;28;20091;-64
2023/07/20 11:01:14;;;;;;;4.13;3.72;;;;;;;;;;10340329;28;20083;-64
2023/07/20 11:06:34;;;;;;;6.82;3.95;;;;;;;;;;10341139;28;20082;-64
2023/07/20 11:11:34;;;;;;;6.45;3.50;;;;;;;;;;10324021;28;20079;-64
2023/07/20 11:16:36;;;;;;;4.53;3.28;;;;;;;;;;10323146;28;20076;-64
2023/07/20 11:21:39;;;;;;;8.38;4.00;;;;;;;;;;10339974;28;20079;-64
2023/07/20 11:26:57;;;;;;;5.45;3.90;;;;;;;;;;10340488;28;20087;-64
2023/07/20 11:31:55;;;;;;;6.18;4.85;;;;;;;;;;10339204;28;20532;-64
2023/07/20 11:36:55;;;;;;;9.15;3.85;;;;;;;;;;10340032;28;20075;-64
2023/07/20 11:41:57;;;;;;;7.75;3.85;;;;;;;;;;10339869;28;20087;-65
2023/07/20 11:47:03;;;;;;;6.85;3.20;;;;;;;;;;10338965;28;20083;-64
2023/07/20 11:52:04;;;;;;;5.90;3.00;;;;;;;;;;10337864;28;20064;-64
2023/07/20 11:57:02;;;;;;;6.78;3.72;;;;;;;;;;10338615;28;20080;-64
2023/07/20 12:02:02;;;;;;;7.72;3.95;;;;;;;;;;10338424;28;20501;-65
2023/07/20 12:07:00;;;;;;;9.88;4.95;;;;;;;;;;10337346;28;20075;-65
2023/07/20 12:12:00;;;;;;;5.35;3.00;;;;;;;;;;10336456;28;20075;-65
2023/07/20 12:16:58;;;;;;;5.63;3.13;;;;;;;;;;10336708;28;20075;-64
2023/07/20 12:21:59;;;;;;;5.57;2.85;;;;;;;;;;10337316;28;20102;-64
2023/07/20 12:26:59;;;;;;;7.55;3.03;;;;;;;;;;10336085;28;20080;-63
2023/07/20 12:31:58;;;;;;;6.35;2.95;;;;;;;;;;10336564;28;20087;-63
2023/07/20 12:36:57;;;;;;;4.60;3.58;;;;;;;;;;10335967;28;20080;-64
2023/07/20 12:41:55;;;;;;;3.63;2.60;;;;;;;;;;10336219;28;20094;-64
2023/07/20 12:46:53;;;;;;;4.38;2.75;;;;;;;;;;10320389;28;20071;-65
2023/07/20 12:51:56;;;;;;;9.10;3.33;;;;;;;;;;10337454;28;20524;-64
2023/07/20 12:56:54;;;;;;;7.45;2.88;;;;;;;;;;10318863;28;20120;-64
2023/07/20 13:01:55;;;;;;;7.22;2.88;;;;;;;;;;10336324;28;20079;-64
2023/07/20 13:06:55;;;;;;;6.50;2.78;;;;;;;;;;10317229;28;20047;-64
2023/07/20 13:11:54;;;;;;;5.47;2.50;;;;;;;;;;10318992;28;20076;-64
2023/07/20 13:16:52;;;;;;;5.35;2.30;;;;;;;;;;10334780;28;20381;-64
2023/07/20 13:21:50;;;;;;;8.38;2.83;;;;;;;;;;10334738;28;20091;-64
2023/07/20 13:26:50;;;;;;;4.32;3.03;;;;;;;;;;10335010;28;20501;-64
2023/07/20 13:31:49;;;;;;;5.50;3.13;;;;;;;;;;10335144;28;20066;-64
2023/07/20 13:36:49;;;;;;;5.05;2.50;;;;;;;;;;10337428;28;20087;-64
2023/07/20 13:41:47;;;;;;;3.85;2.22;;;;;;;;;;10331988;28;20075;-64
2023/07/20 13:46:47;;;;;;;6.57;2.85;;;;;;;;;;10319509;28;20079;-65
2023/07/20 13:51:46;;;;;;;6.18;2.20;;;;;;;;;;10331699;28;20071;-65
2023/07/20 13:57:04;;;;;;;19.63;16.38;;;;;;;;;;10330362;28;20091;-64
2023/07/20 14:02:04;;;;;;;6.53;3.03;;;;;;;;;;10329620;28;20068;-64
2023/07/20 14:07:06;;;;;;;8.18;2.90;;;;;;;;;;10331054;28;20143;-64
2023/07/20 14:12:05;;;;;;;5.40;2.55;;;;;;;;;;10333810;28;20505;-64
2023/07/20 14:17:07;;;;;;;9.18;2.88;;;;;;;;;;10334810;28;20087;-64
2023/07/20 14:22:05;;;;;;;7.30;2.67;;;;;;;;;;10334484;28;20083;-64
2023/07/20 14:27:04;;;;;;;5.75;2.10;;;;;;;;;;10333876;28;20591;-64
2023/07/20 14:32:04;;;;;;;9.07;2.80;;;;;;;;;;10334671;28;20513;-64
2023/07/20 14:37:04;;;;;;;6.45;2.70;;;;;;;;;;10317835;28;20509;-64
2023/07/20 14:42:03;;;;;;;7.20;2.28;;;;;;;;;;10319042;28;20075;-64
2023/07/20 14:47:02;;;;;;;6.75;3.10;;;;;;;;;;10320830;28;20072;-65
2023/07/20 14:52:14;;;;;;;2.85;2.17;;;;;;;;;;10336944;28;20072;-64
2023/07/20 14:57:14;;;;;;;7.43;2.90;;;;;;;;;;10341885;28;20063;-65
2023/07/20 15:02:13;;;;;;;3.63;2.53;;;;;;;;;;10346980;28;20070;-64
2023/07/20 15:07:11;;;;;;;5.32;2.75;;;;;;;;;;10351369;28;20068;-64
2023/07/20 15:12:11;;;;;;;7.80;2.65;;;;;;;;;;10348071;28;20064;-64
2023/07/20 15:17:11;;;;;;;3.05;2.13;;;;;;;;;;10345862;28;20075;-66
2023/07/20 15:22:09;;;;;;;4.90;2.10;;;;;;;;;;10345384;28;20063;-64
2023/07/20 15:27:09;;;;;;;5.88;3.45;;;;;;;;;;10340632;28;20099;-66
2023/07/20 15:32:09;;;;;;;8.15;3.10;;;;;;;;;;10347230;28;20539;-64
2023/07/20 15:37:07;;;;;;;5.22;2.22;;;;;;;;;;10340536;28;20079;-63
2023/07/20 15:42:06;;;;;;;6.55;2.25;;;;;;;;;;10339722;28;20071;-64
2023/07/20 15:47:06;;;;;;;4.38;1.90;;;;;;;;;;10332990;28;20095;-64
2023/07/20 15:52:08;;;;;;;4.03;2.40;;;;;;;;;;10339918;28;20078;-64
2023/07/20 15:57:08;;;;;;;4.53;2.30;;;;;;;;;;10337681;28;20079;-65
2023/07/20 16:02:06;;;;;;;3.72;2.05;;;;;;;;;;10333950;28;20084;-63
2023/07/20 16:07:06;;;;;;;8.68;3.25;;;;;;;;;;10336650;28;20118;-64
2023/07/20 16:12:07;;;;;;;7.07;3.53;;;;;;;;;;10337596;28;20114;-64
2023/07/20 16:17:05;;;;;;;9.30;3.30;;;;;;;;;;10336862;28;20087;-64
2023/07/20 16:22:04;;;;;;;7.38;2.90;;;;;;;;;;10336024;28;20080;-64
2023/07/20 16:27:04;;;;;;;6.95;3.10;;;;;;;;;;10336526;28;20079;-64
2023/07/20 16:32:03;;;;;;;6.03;2.88;;;;;;;;;;10337409;28;20082;-64
2023/07/20 16:37:05;;;;;;;5.63;2.80;;;;;;;;;;10336955;28;20071;-64
2023/07/20 16:42:24;;;;;;;4.13;2.25;;;;;;;;;;10336824;28;20072;-64
2023/07/20 16:47:26;;;;;;;5.07;2.45;;;;;;;;;;10336404;28;20139;-64
2023/07/20 16:52:26;;;;;;;11.60;4.63;;;;;;;;;;10336695;28;20631;-65
2023/07/20 16:57:24;;;;;;;9.55;4.82;;;;;;;;;;10336517;28;20507;-64
2023/07/20 17:02:22;;;;;;;21.98;5.95;;;;;;;;;;10337013;28;20532;-63
2023/07/20 17:07:23;;;;;;;15.80;5.22;;;;;;;;;;10336798;28;20391;-64
2023/07/20 17:12:21;;;;;;;9.60;4.00;;;;;;;;;;10336427;28;20528;-64
2023/07/20 17:17:20;;;;;;;13.45;4.55;;;;;;;;;;10334869;28;20079;-64
2023/07/20 17:22:19;;;;;;;8.60;4.15;;;;;;;;;;10334816;28;20076;-64
2023/07/20 17:27:19;;;;;;;11.75;4.93;;;;;;;;;;10322251;28;20072;-64
2023/07/20 17:32:17;;;;;;;5.85;3.20;;;;;;;;;;10319209;28;20079;-64
2023/07/20 17:37:17;;;;;;;7.22;3.90;;;;;;;;;;10335910;28;20337;-64
2023/07/20 17:42:15;;;;;;;8.70;4.30;;;;;;;;;;10334026;28;20083;-64
2023/07/20 17:47:18;;;;;;;12.20;6.55;;;;;;;;;;10334908;28;20083;-63
2023/07/20 17:52:19;;;;;;;10.18;5.78;;;;;;;;;;10334711;28;20044;-64
2023/07/20 17:57:23;;;;;;;14.70;7.30;;;;;;;;;;10333873;28;20079;-64
2023/07/20 18:02:25;;;;;;;9.25;4.15;;;;;;;;;;10317626;28;20076;-65
2023/07/20 18:07:23;;;;;;;13.80;4.87;;;;;;;;;;10317515;28;20084;-64
2023/07/20 18:12:21;;;;;;;4.85;3.25;;;;;;;;;;10334457;28;20484;-64
2023/07/20 18:17:20;;;;;;;9.85;3.90;;;;;;;;;;10333806;28;20087;-64
2023/07/20 18:22:19;;;;;;;4.88;3.50;;;;;;;;;;10333887;28;20072;-64
2023/07/20 18:27:18;;;;;;;9.65;3.92;;;;;;;;;;10314464;28;20068;-64
2023/07/20 18:32:16;;;;;;;6.38;3.28;;;;;;;;;;10336992;28;20072;-64
2023/07/20 18:37:17;;;;;;;5.97;3.80;;;;;;;;;;10341608;28;20527;-65
2023/07/20 18:42:17;;;;;;;5.50;3.60;;;;;;;;;;10341157;28;20076;-65
2023/07/20 18:47:16;;;;;;;4.22;3.00;;;;;;;;;;10340711;28;20083;-64
2023/07/20 18:52:15;;;;;;;7.15;3.80;;;;;;;;;;10341333;28;20063;-65
2023/07/20 18:57:13;;;;;;;6.45;3.75;;;;;;;;;;10339877;28;20075;-65
2023/07/20 19:02:13;;;;;;;5.57;3.20;;;;;;;;;;10340355;28;20074;-64
2023/07/20 19:07:13;;;;;;;7.15;3.58;;;;;;;;;;10340879;28;20075;-64
2023/07/20 19:12:13;;;;;;;5.80;3.60;;;;;;;;;;10327747;28;20086;-64
2023/07/20 19:17:13;;;;;;;8.13;4.13;;;;;;;;;;10323612;28;20083;-64
2023/07/20 19:22:13;;;;;;;6.60;3.80;;;;;;;;;;10325937;28;20076;-65
2023/07/20 19:27:11;;;;;;;8.88;4.25;;;;;;;;;;10323999;28;20464;-64
2023/07/20 19:32:10;;;;;;;7.85;4.00;;;;;;;;;;10323178;28;20074;-65
2023/07/20 19:37:10;;;;;;;9.30;4.03;;;;;;;;;;10338628;28;20088;-64
2023/07/20 19:42:09;;;;;;;10.75;5.88;;;;;;;;;;10338443;28;20072;-63
2023/07/20 19:47:07;;;;;;;7.00;3.95;;;;;;;;;;10328289;28;20543;-65
2023/07/20 19:52:06;;;;;;;11.30;4.60;;;;;;;;;;10338167;28;20080;-64
2023/07/20 19:57:06;;;;;;;8.20;3.83;;;;;;;;;;10338448;28;20095;-64
2023/07/20 20:02:24;;;;;;;7.63;4.20;;;;;;;;;;10338716;28;20090;-64
2023/07/20 20:07:44;;;;;;;6.97;5.00;;;;;;;;;;10348041;28;20076;-65
2023/07/20 20:12:44;;;;;;;12.85;6.00;;;;;;;;;;10345402;28;20075;-64
2023/07/20 20:17:43;;;;;;;12.10;3.72;;;;;;;;;;10340043;28;20072;-65
2023/07/20 20:22:41;;;;;;;14.60;3.70;;;;;;;;;;10334650;28;20091;-64
2023/07/20 20:27:39;;;;;;;7.18;4.22;;;;;;;;;;10334211;28;20458;-64
2023/07/20 20:32:42;;;;;;;6.95;4.20;;;;;;;;;;10336930;28;20082;-64
2023/07/20 20:37:40;;;;;;;7.82;3.80;;;;;;;;;;10340862;28;20488;-64
2023/07/20 20:42:38;;;;;;;12.90;4.03;;;;;;;;;;10331130;28;20068;-64
2023/07/20 20:47:38;;;;;;;7.03;4.97;;;;;;;;;;10334414;28;20088;-65
2023/07/20 20:52:38;;;;;;;8.65;3.65;;;;;;;;;;10333519;28;20064;-65
2023/07/20 20:57:36;;;;;;;10.07;4.18;;;;;;;;;;10336275;28;20802;-65
2023/07/20 21:02:34;;;;;;;9.48;4.10;;;;;;;;;;10333238;28;20490;-63
2023/07/20 21:07:33;;;;;;;4.93;4.43;;;;;;;;;;10340115;28;20063;-66
2023/07/20 21:12:33;;;;;;;8.25;4.35;;;;;;;;;;10332296;28;20068;-64
2023/07/20 21:17:31;;;;;;;14.82;4.65;;;;;;;;;;10334860;28;20480;-64
2023/07/20 21:22:29;;;;;;;17.25;5.00;;;;;;;;;;10335494;28;20067;-65
2023/07/20 21:27:28;;;;;;;8.85;4.28;;;;;;;;;;10332006;28;20072;-63
2023/07/20 21:32:27;;;;;;;9.35;4.15;;;;;;;;;;10332373;28;20080;-65
2023/07/20 21:37:26;;;;;;;5.78;3.90;;;;;;;;;;10336042;28;20067;-64
2023/07/20 21:42:24;;;;;;;11.15;4.65;;;;;;;;;;10330971;28;20548;-65
2023/07/20 21:47:22;;;;;;;4.90;3.72;;;;;;;;;;10328907;28;20105;-64
2023/07/20 21:52:22;;;;;;;7.07;4.20;;;;;;;;;;10330906;28;20630;-64
2023/07/20 21:57:20;;;;;;;8.75;4.70;;;;;;;;;;10331548;28;20067;-64
2023/07/20 22:02:19;;;;;;;5.70;4.15;;;;;;;;;;10334302;28;20075;-64
2023/07/20 22:07:20;;;;;;;9.48;4.00;;;;;;;;;;10336070;28;20086;-64
2023/07/20 22:12:20;;;;;;;7.78;4.22;;;;;;;;;;10341691;28;20071;-64
2023/07/20 22:17:20;;;;;;;8.85;3.97;;;;;;;;;;10338341;28;20067;-64
2023/07/20 22:22:19;;;;;;;5.70;4.03;;;;;;;;;;10342332;28;20103;-64
2023/07/20 22:27:17;;;;;;;8.45;4.72;;;;;;;;;;10345332;28;20528;-64
2023/07/20 22:32:17;;;;;;;6.40;4.60;;;;;;;;;;10346809;28;20071;-65
2023/07/20 22:37:15;;;;;;;8.05;4.18;;;;;;;;;;10341154;28;20068;-64
2023/07/20 22:42:13;;;;;;;8.95;4.55;;;;;;;;;;10339282;28;20079;-64
2023/07/20 22:47:12;;;;;;;6.55;4.35;;;;;;;;;;10342942;28;20446;-64
2023/07/20 22:52:12;;;;;;;4.78;3.70;;;;;;;;;;10344133;28;20076;-64
2023/07/20 22:57:10;;;;;;;6.15;4.60;;;;;;;;;;10341812;28;20040;-64
2023/07/20 23:02:09;;;;;;;6.15;3.80;;;;;;;;;;10338528;28;20076;-64
2023/07/20 23:07:07;;;;;;;5.57;4.43;;;;;;;;;;10339129;28;20072;-64
2023/07/20 23:12:07;;;;;;;9.52;4.35;;;;;;;;;;10339138;28;20055;-64
2023/07/20 23:17:06;;;;;;;8.60;4.47;;;;;;;;;;10342258;28;20044;-64
2023/07/20 23:22:05;;;;;;;6.68;4.72;;;;;;;;;;10342669;28;20072;-63
2023/07/20 23:27:03;;;;;;;11.27;4.72;;;;;;;;;;10337955;28;20075;-64
2023/07/20 23:32:04;;;;;;;7.60;3.85;;;;;;;;;;10321233;28;20084;-63
2023/07/20 23:37:02;;;;;;;5.13;4.00;;;;;;;;;;10336609;28;20079;-64
2023/07/20 23:42:01;;;;;;;4.57;3.80;;;;;;;;;;10338767;28;20076;-64
2023/07/20 23:46:59;;;;;;;9.32;4.53;;;;;;;;;;10338600;28;20064;-64
2023/07/20 23:51:59;;;;;;;7.18;4.60;;;;;;;;;;10337408;28;20071;-64
2023/07/20 23:56:57;;;;;;;8.05;4.40;;;;;;;;;;10335295;28;20067;-64
